x

8447387 - Borden Flats Light At Fall River, Ma (bltm3) Weather Station

10:30 - Tue 6th Dec 2016 All times are EST. -5 hours from GMT.

  • Wind
    16mph, 21mph gusts
  • Ar Temp 45°f
  • Sea Pressure 1020.4mb
  • 8447387 - Borden Flats Light At Fall River, Ma
  • 8447387 - Borden Flats Light At Fall River, Ma

More Historic Weather Station data

Upgrade to MSW Pro to gain access to the past 30 days of data for over 8000 Wavebouys and Weather Stations around the globe.

Join Pro

Comparision Forecast

View Surf forecast
   
Ter 12/06 10:30 16 21 mph 1020.4mb 45f
10:24 15 21 mph 1020.5mb 44f
10:18 14 17 mph 1020.7mb 45f
10:12 14 16 mph 1020.6mb 45f
10:06 10 14 mph 1020.8mb 45f
10:00 9 13 mph 1020.8mb 45f
9:54 8 11 mph 1021mb 44f
9:48 11 14 mph 1020.9mb 44f
9:42 6 9 mph 1020.9mb 43f
9:36 6 8 mph 1020.9mb 42f
9:30 5 7 mph 1021mb 40f
9:24 6 8 mph 1021mb 39f
9:18 6 7 mph 1020.9mb 38f
9:12 3 5 mph 1020.9mb 38f
9:06 3 6 mph 1020.7mb 38f
9:00 6 7 mph 1020.6mb 39f
8:54 5 6 mph 1020.4mb 41f
8:48 5 6 mph 1020.3mb 41f
8:42 2 5 mph 1020.3mb 40f
8:36 5 6 mph 1020.3mb 42f
8:30 5 7 mph 1020.3mb 42f
8:24 6 7 mph 1020.2mb 43f
8:18 5 7 mph 1020.3mb 42f
8:12 3 5 mph 1020.3mb 41f
8:06 3 5 mph 1020.5mb 41f
8:00 3 6 mph 1020.4mb 40f
7:54  -  5 mph 1020.4mb 40f
7:48  -  2 mph 1020.5mb 39f
7:42  -  1 mph 1020.5mb 38f
7:36  -  2 mph 1020.4mb 38f
7:30 3
mph
1020.4mb 37f
7:24 3 5 mph 1020.3mb 37f
7:18 3 6 mph 1020.4mb 36f
7:12 5 6 mph 1020.5mb 36f
7:06 3 5 mph 1020.5mb 36f
7:00 5 6 mph 1020.4mb 36f
6:54 6 7 mph 1020.3mb 36f
6:48 7 8 mph 1020.3mb 36f
6:42 7 8 mph 1020.3mb 36f
6:36 6 8 mph 1020.3mb 36f
6:30 6 8 mph 1020.2mb 36f
6:24 6 7 mph 1020.1mb 36f
6:18 5 6 mph 1020mb 36f
6:12 5 6 mph 1020.1mb 36f
6:06 5 6 mph 1020.1mb 36f
6:00 6 7 mph 1020mb 36f
5:54 6 7 mph 1019.9mb 37f
5:48 6 7 mph 1020.1mb 37f
5:42 6 7 mph 1020.1mb 37f
5:36 6 7 mph 1020mb 37f
5:30 6
mph
1020mb 37f
5:24 5 6 mph 1020mb 37f
5:18 5 6 mph 1019.9mb 37f
5:12 6 7 mph 1019.8mb 37f
5:06 6 8 mph 1019.7mb 37f
5:00 5 7 mph 1019.7mb 38f
4:54 5 7 mph 1019.6mb 38f
4:48 3 5 mph 1019.4mb 38f
4:42 3 5 mph 1019.3mb 38f
4:36 3 5 mph 1019.2mb 38f
4:30 5 6 mph 1019.1mb 38f
4:24 7 9 mph 1019.1mb 38f
4:18 6 8 mph 1019.1mb 38f
4:12 6 9 mph 1018.9mb 39f
4:06 7 8 mph 1018.9mb 39f
4:00 8 10 mph 1018.9mb 39f
3:54 9 11 mph 1018.9mb 39f
3:48 8 11 mph 1018.9mb 40f
3:42 8 10 mph 1018.9mb 40f
3:36 8 11 mph 1019mb 40f
3:30 8 10 mph 1018.9mb 40f
3:24 7 10 mph 1018.9mb 40f
3:18 8 9 mph 1018.8mb 40f
3:12 8 11 mph 1018.6mb 40f
3:06 8 11 mph 1018.5mb 40f
3:00 9 11 mph 1018.5mb 40f
2:54 9 14 mph 1018.5mb 40f
2:48 10 13 mph 1018.6mb 40f
2:42 11 14 mph 1018.6mb 40f
2:36 10 14 mph 1018.6mb 40f
2:30 10 14 mph 1018.8mb 40f
2:24 10 13 mph 1018.7mb 41f
2:18 9 13 mph 1018.6mb 40f
2:12 9 11 mph 1018.6mb 41f
2:06 10 13 mph 1018.6mb 41f
2:00 9 11 mph 1018.6mb 41f
1:54 11 17 mph 1018.5mb 41f
1:48 13 18 mph 1018.5mb 41f
1:42 10 13 mph 1018.3mb 41f
1:36 13 17 mph 1018.2mb 41f
1:30 11 14 mph 1018.2mb 41f
1:24 14 16 mph 1018mb 41f
1:18 14 16 mph 1017.9mb 41f
1:12 13 16 mph 1017.8mb 41f
1:06 11 15 mph 1017.7mb 41f
1:00 14 16 mph 1017.5mb 41f
12:54 14 18 mph 1017.4mb 41f
12:48 15 18 mph 1017.2mb 41f
12:42 17 22 mph 1017mb 41f
12:36 20 23 mph 1016.9mb 42f
12:30 18 22 mph 1016.9mb 41f
12:24 20 24 mph 1016.8mb 41f
12:18 17 21 mph 1016.8mb 42f
12:12 16 21 mph 1016.6mb 42f
12:06 17 21 mph 1016.6mb 42f
12:00 16 18 mph 1016.6mb 42f
Seg 12/05 11:54 16 18 mph 1016.6mb 42f
11:48 16 20 mph 1016.7mb 42f
11:42 16 20 mph 1016.5mb 42f
11:36 16 18 mph 1016.5mb 42f
11:30 16 21 mph 1016.5mb 42f
11:24 17 22 mph 1016.5mb 42f
11:18 16 18 mph 1016.5mb 42f
11:12 15 18 mph 1016.5mb 42f
11:06 16 18 mph 1016.4mb 42f
11:00 17 22 mph 1016.4mb 42f
10:54 16 20 mph 1016.4mb 42f
10:48 15 20 mph 1016.4mb 42f
10:42 15 18 mph 1016.4mb 42f
10:36 15 20 mph 1016.5mb 42f
10:30 14 20 mph 1016.5mb 42f
10:24 14 17 mph 1016.4mb 42f
10:18 15 18 mph 1016.3mb 42f
10:12 15 20 mph 1016.3mb 42f
10:06 16 22 mph 1016.2mb 42f
10:00 17 20 mph 1016.2mb 42f
9:54 18 22 mph 1016.2mb 42f
9:48 17 21 mph 1016.1mb 42f
9:42 15 20 mph 1016.1mb 42f
9:36 16 22 mph 1016.1mb 42f
9:30 16 20 mph 1016.2mb 42f
9:24 16 20 mph 1016mb 42f
9:18 15 18 mph 1015.9mb 42f
9:12 14 18 mph 1015.8mb 42f
9:06 15 20 mph 1015.7mb 42f
9:00 14 17 mph 1015.8mb 42f
8:54 13 16 mph 1015.8mb 42f
8:48 13 16 mph 1015.7mb 42f
8:42 9 13 mph 1015.6mb 42f
8:36 10 14 mph 1015.6mb 42f
8:30 10 13 mph 1015.6mb 41f
8:24 8 11 mph 1015.6mb 42f
8:18 10 14 mph 1015.5mb 41f
8:12 10 13 mph 1015.4mb 41f
8:06 11 15 mph 1015.3mb 41f
8:00 13 18 mph 1015.2mb 41f
7:54 13 15 mph 1015.1mb 41f
7:48 14 18 mph 1015.1mb 41f
7:42 13 16 mph 1015mb 41f
7:36 14 18 mph 1014.9mb 40f
7:30 9 13 mph 1014.9mb 40f
7:24 9 13 mph 1014.8mb 40f
7:18 8 11 mph 1014.7mb 40f
7:12 8 10 mph 1014.7mb 41f
7:06 10 13 mph 1014.6mb 41f
7:00 9 11 mph 1014.5mb 41f
6:54 11 14 mph 1014.5mb 41f
6:48 10 14 mph 1014.5mb 41f
6:42 10 11 mph 1014.6mb 41f
6:36 10 11 mph 1014.6mb 41f
6:30 10 13 mph 1014.7mb 41f
6:24 8 10 mph 1014.7mb 41f
6:18 9 10 mph 1014.7mb 41f
6:12 9 11 mph 1014.9mb 41f
6:06 10 13 mph 1015mb 41f
6:00 10 13 mph 1015mb 42f
5:54 9 10 mph 1014.9mb 42f
5:48 9 10 mph 1014.8mb 42f
5:42 8 9 mph 1014.9mb 42f
5:36 8 9 mph 1014.9mb 42f
5:30 8 9 mph 1014.9mb 42f
5:24 7 8 mph 1014.9mb 42f
5:18 6 7 mph 1014.9mb 42f
5:12 7 8 mph 1014.9mb 42f
5:06 7 9 mph 1014.8mb 42f
5:00 8 9 mph 1014.9mb 42f
4:54 7 9 mph 1014.8mb 42f
4:48 7 8 mph 1014.7mb 42f
4:42 8 9 mph 1014.7mb 42f
4:36 7 8 mph 1014.7mb 42f
4:30 6 8 mph 1014.5mb 42f
4:24 8 10 mph 1014.5mb 42f
4:18 7 9 mph 1014.4mb 42f
4:12 8 9 mph 1014.5mb 42f
4:06 7 9 mph 1014.5mb 42f
4:00 6 7 mph 1014.4mb 42f
3:54 7 9 mph 1014.3mb 42f
3:48 6 7 mph 1014.4mb 43f
3:42 6 7 mph 1014.3mb 42f
3:36 7 8 mph 1014.4mb 42f
3:30 7 11 mph 1014.3mb 42f
3:24 7 9 mph 1014.3mb 42f
3:18 8 9 mph 1014.2mb 42f
3:12 9 11 mph 1014.1mb 41f
3:06 11 15 mph 1013.9mb 41f
3:00 10 14 mph 1014mb 41f
2:54 11 15 mph 1013.9mb 41f
2:48 10 13 mph 1013.6mb 41f
2:42 9 11 mph 1013.5mb 41f
2:36 10 14 mph 1013.4mb 41f
2:30 8 11 mph 1013.4mb 41f
2:24 8 10 mph 1013.4mb 41f
2:18 8 13 mph 1013.4mb 40f
2:12 5 6 mph 1013.3mb 40f
2:06 5 7 mph 1013.2mb 40f
2:00 5 6 mph 1013.2mb 40f
1:54 5
mph
1013.2mb 40f
1:48 5 7 mph 1013.3mb 40f
1:42 5
mph
1013.3mb 40f
1:36 3 5 mph 1013.3mb 39f
1:30 5 6 mph 1013.2mb 40f
1:24 5 6 mph 1013.3mb 40f
1:18 3 6 mph 1013.4mb 40f
1:12 5
mph
1013.5mb 40f
1:06 5 6 mph 1013.6mb 40f
1:00 6 7 mph 1013.6mb 40f
12:54 3 5 mph 1013.5mb 40f
12:48 2 3 mph 1013.5mb 41f
12:42 3 5 mph 1013.5mb 41f
12:36 3 5 mph 1013.7mb 41f
12:30 3 5 mph 1013.7mb 41f
12:24 2 3 mph 1013.6mb 41f
12:18 3 5 mph 1013.7mb 41f
12:12 3 5 mph 1013.8mb 41f
12:06 3
mph
1013.9mb 41f
12:00 2
mph
1014mb 41f
11:54 1 2 mph 1014mb 41f
11:48 1 2 mph 1014.1mb 41f
11:42  -  mph 1014.2mb 41f
11:36  -  1 mph 1014.3mb 41f
11:30  -  2 mph 1014.5mb 41f
11:24 2 3 mph 1014.6mb 40f
11:18 5 6 mph 1014.7mb 40f
11:12 5
mph
1014.8mb 40f
11:06 5 6 mph 1015.1mb 40f
11:00 5 6 mph 1015.2mb 40f
10:54 5 6 mph 1015.3mb 40f
10:48 3 5 mph 1015.4mb 39f
10:42 3 6 mph 1015.6mb 39f
10:36 5 6 mph 1015.8mb 38f
10:30 5 6 mph 1016mb 38f
10:24 5 6 mph 1016.1mb 38f
10:18 3 5 mph 1016.3mb 38f
10:12 5 6 mph 1016.5mb 38f
10:06 3 5 mph 1016.7mb 38f
10:00 5
mph
1016.9mb 38f
9:54 5 6 mph 1017mb 38f
9:48 3 5 mph 1016.9mb 37f
9:42 3 5 mph 1017mb 37f
9:36 5 6 mph 1016.9mb 37f
9:30 3 5 mph 1016.9mb 37f
9:24 3 5 mph 1016.9mb 37f
9:18 3 5 mph 1017mb 37f
9:12 3 5 mph 1017.1mb 37f
9:06 3 5 mph 1017mb 37f
9:00 5 6 mph 1017.1mb 36f
8:54 5 6 mph 1017mb 36f
8:48 5 7 mph 1017.1mb 36f
8:42 8 9 mph 1017mb 36f
8:36 9 10 mph 1017mb 35f
8:30 8 9 mph 1017mb 36f
8:24 8 11 mph 1017.1mb 36f
8:18 10 11 mph 1017.1mb 36f
8:12 9 10 mph 1017.2mb 35f
8:06 9 10 mph 1017.3mb 36f
8:00 9 11 mph 1017.4mb 36f
7:54 8 10 mph 1017.6mb 36f
7:48 9 11 mph 1017.8mb 36f
7:42 9 11 mph 1017.8mb 35f
7:36 9 11 mph 1017.8mb 35f
7:30 7 9 mph 1017.9mb 36f
7:24 6 8 mph 1018mb 35f
7:18 8 10 mph 1017.8mb 35f
7:12 7 9 mph 1018mb 35f
7:06 8 10 mph 1017.8mb 35f
7:00 8 9 mph 1017.7mb 35f
6:54 9 13 mph 1017.7mb 34f
6:48 8 10 mph 1017.8mb 34f
6:42 8 10 mph 1018.1mb 34f
6:36 6 9 mph 1018.3mb 34f
6:30 6 8 mph 1018.5mb 34f
6:24 6 9 mph 1018.5mb 35f
6:18 6 8 mph 1018.1mb 35f
6:12 5 6 mph 1018.7mb 36f
6:06 5 7 mph 1018.6mb 36f
6:00 6 8 mph 1018.5mb 35f
5:54 6 8 mph 1018.4mb 35f
5:48 9 10 mph 1018.5mb 35f
5:42 9 10 mph 1018.7mb 35f
5:36 8 9 mph 1018.9mb 34f
5:30 6 8 mph 1019.2mb 34f
5:24 6 7 mph 1019.4mb 34f
5:18 5 6 mph 1019.7mb 34f
5:12 7 8 mph 1019.6mb 34f
5:06 7 8 mph 1019.5mb 33f
5:00 7 8 mph 1019.4mb 33f
4:54 6 7 mph 1019.8mb 33f
4:48 6 7 mph 1020mb 33f
4:42 5 6 mph 1020.3mb 33f
4:36 5 6 mph 1020.3mb 33f
4:30 3 5 mph 1020.6mb 33f
4:24 5
mph
1020.6mb 33f
4:18 5
mph
1020.7mb 33f
4:12 3 5 mph 1020.7mb 33f
4:06 5 6 mph 1020.8mb 33f
4:00 6
mph
1020.6mb 33f
3:54 5 6 mph 1020.5mb 33f
3:48 5 7 mph 1020.4mb 33f
3:42 6
mph
1020.2mb 33f
3:36 5 6 mph 1020.1mb 33f
3:30 7 8 mph 1019.6mb 33f
3:24 8 9 mph 1019.4mb 33f
3:18 8 9 mph 1019.6mb 33f
3:12 6 7 mph 1019.7mb 33f
3:06 5 6 mph 1020mb 33f
3:00 3 5 mph 1020.3mb 33f
2:54 3 5 mph 1020.3mb 33f
2:48 3 5 mph 1020.4mb 33f
2:42 2 3 mph 1020.5mb 33f
2:36 3 5 mph 1020.7mb 33f
2:30 3 5 mph 1020.8mb 33f
2:24 3 5 mph 1020.8mb 33f
2:18 5 6 mph 1020.6mb 33f
2:12 5 6 mph 1020.8mb 33f
2:06 3 5 mph 1021mb 33f
2:00 3 5 mph 1021.2mb 33f
1:54 3 5 mph 1021.2mb 33f
1:48 3 5 mph 1021.3mb 33f
1:42 3 5 mph 1021.3mb 33f
1:36 5 7 mph 1021.1mb 34f
1:30 6 7 mph 1021.1mb 34f
1:24 7 9 mph 1020.9mb 34f
1:18 6 8 mph 1020.9mb 34f
1:12 6 8 mph 1020.8mb 34f
1:06 6 8 mph 1021mb 34f
1:00 6 7 mph 1021.2mb 34f
12:54 6 7 mph 1021mb 34f
12:48 5 7 mph 1021.1mb -
12:42 5 6 mph 1021.1mb -
12:36 5 6 mph 1021.4mb -
12:30 5 6 mph 1021.3mb 34f
12:24 5 6 mph 1021.3mb 34f
12:18 5 6 mph 1021.3mb 34f
12:12 3 5 mph 1021.4mb 34f
12:06 5
mph
1021.5mb 34f
12:00 3 5 mph 1021.6mb 34f
Dom 12/04 11:54 2 5 mph 1021.6mb 34f
11:48 3 5 mph 1021.7mb 34f
11:42 3 5 mph 1021.7mb 34f
11:36 3 5 mph 1021.9mb 34f
11:30 5 6 mph 1021.7mb 34f
11:24 5 6 mph 1021.8mb 34f
11:18 3 5 mph 1022mb 34f
11:12 3 5 mph 1022.1mb 34f
11:06 3 5 mph 1022.2mb 34f
11:00 3 5 mph 1022.2mb 34f
10:54 3 5 mph 1022.2mb 34f
10:48 3 5 mph 1022.3mb 34f
10:42 3 5 mph 1022.4mb 34f
10:36 3 5 mph 1022.4mb 34f
10:30 6
mph
1022.3mb 34f
10:24 6 8 mph 1022.3mb 34f
10:18 5 6 mph 1022.4mb 34f
10:12 5 6 mph 1022.5mb 34f
10:06 3 5 mph 1022.6mb 35f
10:00 5 6 mph 1022.7mb 35f
9:54 5 7 mph 1022.8mb 35f
9:48 6 8 mph 1022.7mb 35f
9:42 6 8 mph 1022.6mb 35f
9:36 8 9 mph 1022.6mb 35f
9:30 6 7 mph 1022.8mb 35f
9:24 5 6 mph 1022.9mb 35f
9:18 2 5 mph 1022.9mb 35f
9:12 3 5 mph 1022.8mb 36f
9:06 3 5 mph 1022.9mb 36f
9:00 3 5 mph 1022.8mb 36f
8:54 3 5 mph 1022.6mb 36f
8:48 5 6 mph 1022.7mb 36f
8:42 5 6 mph 1022.7mb 36f
8:36 3 6 mph 1022.9mb 36f
8:30 5 6 mph 1023mb 36f
8:24 3 5 mph 1023.2mb 36f
8:18 3 5 mph 1023.2mb 37f
8:12 5 6 mph 1023.2mb 37f
8:06 6 7 mph 1023.1mb 37f
8:00 7 8 mph 1023.1mb 37f
7:54 7 8 mph 1023.2mb 37f
7:48 7 8 mph 1023.1mb 38f
7:42 7 8 mph 1023.1mb 38f
7:36 7 8 mph 1023mb 38f
7:30 7 9 mph 1023.2mb 37f
7:24 6 7 mph 1023.3mb 38f
7:18 6
mph
1023.2mb 38f
7:12 5 6 mph 1023.1mb 38f
7:06 5 6 mph 1023mb 38f
7:00 5 6 mph 1022.9mb 38f
6:54 6 7 mph 1022.9mb 38f
6:48 6 7 mph 1022.8mb 38f
6:42 6 7 mph 1022.8mb 39f
6:36 5 6 mph 1022.8mb 39f
6:30 5 6 mph 1022.8mb 39f
6:24 5 6 mph 1022.7mb 39f
6:18 5 6 mph 1022.6mb 39f
6:12 3 5 mph 1022.6mb 39f
6:06 3 5 mph 1022.5mb 39f
6:00 2 3 mph 1022.5mb 39f
5:54 2 3 mph 1022.5mb 40f
5:48 2 3 mph 1022.5mb 40f
5:42 2 3 mph 1022.5mb 40f
5:36 2 3 mph 1022.5mb 40f
5:30 3 5 mph 1022.5mb 40f
5:24 2 3 mph 1022.4mb 40f
5:18 2 3 mph 1022.3mb 41f
5:12 2 3 mph 1022.3mb 41f
5:06 3 5 mph 1022.2mb 41f
5:00 3 5 mph 1022.3mb 42f
4:54 3
mph
1022.2mb 42f
4:48 5 6 mph 1022.1mb 42f
4:42 3 5 mph 1022.1mb 42f
4:36 5 6 mph 1022.1mb 42f
4:30 5 6 mph 1021.9mb 43f
4:24 5 6 mph 1021.9mb 43f
4:18 6 7 mph 1021.9mb 43f
4:12 6 9 mph 1021.8mb 43f
4:06 6 8 mph 1021.9mb 44f
4:00 7 9 mph 1021.9mb 44f
3:54 7 9 mph 1022mb 45f
3:48 7 10 mph 1022.1mb 45f
3:42 7 9 mph 1022.1mb 46f
3:36 8 10 mph 1022mb 46f
3:30 8 10 mph 1021.8mb 46f
3:24 6 7 mph 1021.9mb 46f
3:18 6 8 mph 1021.8mb 44f
3:12 7 9 mph 1021.7mb 46f
3:06 8 10 mph 1021.8mb 46f
3:00 11 14 mph 1021.9mb 46f
2:54 6 9 mph 1022.1mb 46f
2:48 8 10 mph 1022.1mb 46f
2:42 8 11 mph 1021.9mb 46f
2:36 11 14 mph 1021.9mb 45f
2:30 7 11 mph 1021.7mb 45f
2:24 11 16 mph 1021.8mb 45f
2:18 13 17 mph 1021.5mb 44f
2:12 10 16 mph 1021.6mb 45f
2:06 8 11 mph 1021.5mb 44f
2:00 8 10 mph 1021.6mb 43f
1:54 6 9 mph 1021.6mb 45f
1:48 9 14 mph 1021.6mb 42f
1:42 9 11 mph 1021.6mb 41f
1:36 8 13 mph 1021.6mb 42f
1:30 13 15 mph 1021.6mb 42f
1:24 9 14 mph 1021.6mb 44f
1:18 7 13 mph 1021.7mb 44f
1:12 14 20 mph 1021.5mb 42f
1:06 10 15 mph 1021.6mb 41f
1:00 11 16 mph 1021.6mb 42f
12:54 11 15 mph 1021.5mb 41f
12:48 9 14 mph 1021.7mb 42f
12:42 8 13 mph 1021.7mb 42f
12:36 9 14 mph 1021.7mb 43f
12:30 11 16 mph 1021.6mb 43f
12:24 3 8 mph 1021.7mb 43f
12:18 11 14 mph 1021.7mb 43f
12:12 14 17 mph 1021.7mb 43f
12:06 9 13 mph 1021.8mb 42f
12:00 13 17 mph 1021.8mb 42f
11:54 9 14 mph 1022mb 41f
11:48 14 16 mph 1022mb 40f
11:42 14 16 mph 1022mb 41f
11:36 8 10 mph 1022.1mb 40f
11:30 8 10 mph 1022.2mb 40f
11:24 13 17 mph 1022.2mb 40f
11:18 17 22 mph 1022.1mb 40f
11:12 14 16 mph 1022.1mb 39f
11:06 11 15 mph 1022.2mb 39f
11:00 13 17 mph 1022.1mb 39f
10:54 14 17 mph 1022mb 40f
10:48 14 22 mph 1022.1mb 40f
10:42 10 14 mph 1022mb 40f
10:36 13 16 mph 1022mb 38f
10:30 13 18 mph 1022.1mb 39f
10:24 13 15 mph 1022.1mb 39f
10:18 11 14 mph 1022.2mb 39f
10:12 13 17 mph 1022.3mb 38f
10:06 13 16 mph 1022.5mb 39f
10:00 13 17 mph 1022.4mb 39f
9:54 13 16 mph 1022.6mb 38f
9:48 15 20 mph 1022.6mb 38f
9:42 14 20 mph 1022.6mb 38f
9:36 14 18 mph 1022.6mb 37f
9:30 14 18 mph 1022.5mb 37f
9:24 13 16 mph 1022.3mb 37f
9:18 13 20 mph 1022.3mb 37f
9:12 10 13 mph 1022.2mb 37f
9:06 9 15 mph 1022.2mb 37f
9:00 10 15 mph 1022.2mb 37f
8:54 11 15 mph 1022.1mb 37f
8:48 7 9 mph 1022.1mb 37f
8:42 8 9 mph 1022.1mb 37f
8:36 7 9 mph 1022.1mb 37f
8:30 7 10 mph 1022.1mb 37f
8:24 8 10 mph 1022.1mb 37f
8:18 8 9 mph 1022.1mb 37f
8:12 5 9 mph 1022mb 37f
8:06 6 8 mph 1021.9mb 36f
8:00 7 9 mph 1021.7mb 36f
7:54 6 7 mph 1021.8mb 36f
7:48 6 8 mph 1021.9mb 36f
7:42 6 7 mph 1021.9mb 36f
7:36 6 9 mph 1021.7mb 36f
7:30 6 8 mph 1021.7mb 36f
7:24 6 7 mph 1021.6mb 36f
7:18 6 7 mph 1021.5mb 36f
7:12 6 8 mph 1021.3mb 36f
7:06 6 7 mph 1021.3mb 36f
7:00 7 8 mph 1021.3mb 36f
6:54 6 7 mph 1021.3mb 36f
6:48 6 7 mph 1021.2mb 36f
6:42 7 8 mph 1021.2mb 36f
6:36 6 7 mph 1021.3mb 36f
6:30 6 7 mph 1021.3mb 36f
6:24 6 8 mph 1021.2mb 36f
6:18 7 9 mph 1021mb 36f
6:12 6 9 mph 1021.1mb 36f
6:06 7 8 mph 1021.2mb 36f
6:00 7 9 mph 1021.2mb 36f
5:54 8 10 mph 1021.2mb 36f
5:48 7 10 mph 1021.1mb 36f
5:42 7 9 mph 1021.2mb 36f
5:36 7 9 mph 1021.1mb 36f
5:30 6 9 mph 1021.1mb 36f
5:24 6 8 mph 1021mb 35f
5:18 6 8 mph 1020.9mb 36f
5:12 7 10 mph 1020.9mb 36f
5:06 10 16 mph 1020.9mb 36f
5:00 9 13 mph 1020.8mb 36f
4:54 11 16 mph 1020.8mb 35f
4:48 9 14 mph 1020.8mb 35f
4:42 8 11 mph 1020.8mb 35f
4:36 7 10 mph 1020.8mb 35f
4:30 8 13 mph 1020.8mb 35f
4:24 11 15 mph 1020.8mb 36f
4:18 11 14 mph 1020.8mb 36f
4:12 13 16 mph 1020.9mb 36f
4:06 13 17 mph 1020.9mb 36f
4:00 9 13 mph 1020.9mb 36f
3:54 10 13 mph 1020.9mb 36f
3:48 10 14 mph 1021mb 36f
3:42 10 13 mph 1020.9mb 36f
3:36 9 11 mph 1020.8mb 36f
3:30 8 11 mph 1020.9mb 36f
3:24 9 11 mph 1020.9mb 36f
3:18 11 14 mph 1020.9mb 36f
3:12 10 14 mph 1020.9mb 36f
3:06 11 14 mph 1020.9mb 35f
3:00 11 15 mph 1020.8mb 36f
2:54 10 14 mph 1020.6mb 35f
2:48 11 14 mph 1020.6mb 36f
2:42 10 13 mph 1020.6mb 36f
2:36 11 14 mph 1020.5mb 36f
2:30 11 17 mph 1020.6mb 36f
2:24 10 13 mph 1020.5mb 36f
2:18 10 13 mph 1020.5mb 36f
2:12 10 14 mph 1020.4mb 36f
2:06 11 15 mph 1020.4mb 36f
2:00 10 14 mph 1020.2mb 36f
1:54 11 14 mph 1020.2mb 36f
1:48 10 14 mph 1020.3mb 36f
1:42 9 13 mph 1020.2mb 36f
1:36 9 10 mph 1020.2mb 36f
1:30 9 11 mph 1020.1mb 36f
1:24 11 16 mph 1020mb 36f
1:18 11 15 mph 1019.7mb 36f
1:12 9 11 mph 1019.6mb 37f
1:06 10 13 mph 1019.6mb 37f
1:00 11 14 mph 1019.5mb 37f
12:54 9 14 mph 1019.5mb 37f
12:48 8 11 mph 1019.5mb 37f
12:42 9 10 mph 1019.4mb 37f
12:36 8 10 mph 1019.4mb 37f
12:30 8 11 mph 1019.2mb 37f
12:24 8 10 mph 1019.2mb 37f
12:18 8 9 mph 1019.1mb 37f
12:12 7 10 mph 1019.1mb 37f
12:06 7 9 mph 1019mb 37f
12:00 7 8 mph 1019mb 38f
Sáb 12/03 11:54 7 9 mph 1018.9mb 38f
11:48 8 10 mph 1018.7mb 37f
11:42 7 9 mph 1018.7mb 38f
11:36 6 7 mph 1018.7mb 38f
11:30 8 10 mph 1018.6mb 38f
11:24 8 10 mph 1018.5mb 38f
11:18 7 10 mph 1018.4mb 38f
11:12 7 8 mph 1018.3mb 38f
11:06 6 8 mph 1018.2mb 38f
11:00 6 8 mph 1018.1mb 38f
10:54 5 8 mph 1018.1mb 38f
10:48 6 8 mph 1018mb 38f
10:42 5 6 mph 1017.9mb 38f
10:36 5 6 mph 1017.8mb 38f
10:30 7 8 mph 1017.7mb 39f
10:24 8 11 mph 1017.7mb 39f
10:18 8 10 mph 1017.5mb 39f
10:12 10 14 mph 1017.4mb 39f
10:06 10 13 mph 1017.3mb 39f
10:00 9 13 mph 1017.3mb 39f
9:54 9 14 mph 1017.4mb 39f
9:48 9 14 mph 1017.5mb 40f
9:42 11 17 mph 1017.4mb 40f
9:36 11 14 mph 1017.5mb 40f
9:30 13 18 mph 1017.4mb 40f
9:24 13 16 mph 1017.5mb 40f
9:18 15 21 mph 1017.5mb 40f
9:12 17 23 mph 1017.5mb 40f
9:06 18 24 mph 1017.4mb 40f
9:00 17 25 mph 1017.5mb 40f
8:54 14 18 mph 1017.5mb 41f
8:48 11 16 mph 1017.5mb 41f
8:42 15 21 mph 1017.5mb 41f
8:36 16 22 mph 1017.5mb 41f
8:30 16 20 mph 1017.5mb 41f
8:24 17 23 mph 1017.4mb 41f
8:18 16 23 mph 1017.4mb 42f
8:12 13 16 mph 1017.4mb 42f
8:06 16 21 mph 1017.3mb 42f
8:00 15 23 mph 1017.3mb 42f
7:54 23 31 mph 1017.2mb 42f
7:48 18 24 mph 1017.2mb 42f
7:42 14 20 mph 1017.2mb 42f
7:36 18 24 mph 1017.1mb 42f
7:30 20 26 mph 1017mb 42f
7:24 16 20 mph 1017mb 42f
7:18 18 26 mph 1016.9mb 43f
7:12 22 29 mph 1016.8mb 43f
7:06 15 18 mph 1016.8mb 43f
7:00 15 22 mph 1016.6mb 43f
6:54 20 25 mph 1016.5mb 43f
6:48 14 17 mph 1016.6mb 43f
6:42 13 18 mph 1016.6mb 43f
6:36 13 17 mph 1016.6mb 43f
6:30 11 14 mph 1016.7mb 43f
6:24 11 16 mph 1016.7mb 43f
6:18 10 15 mph 1016.5mb 43f
6:12 10 15 mph 1016.3mb 43f
6:06 13 18 mph 1016.3mb 43f
6:00 13 16 mph 1016.2mb 43f
5:54 10 16 mph 1016.1mb 43f
5:48 10 14 mph 1016mb 43f
5:42 11 15 mph 1015.9mb 43f
5:36 13 17 mph 1015.7mb 43f
5:30 14 18 mph 1015.6mb 43f
5:24 13 16 mph 1015.5mb 43f
5:18 11 17 mph 1015.4mb 43f
5:12 13 16 mph 1015.2mb 43f
5:06 11 16 mph 1015.2mb 43f
5:00 11 15 mph 1015mb 43f
4:54 13 20 mph 1014.9mb 43f
4:48 10 14 mph 1014.8mb 43f
4:42 13 16 mph 1014.7mb 43f
4:36 14 20 mph 1014.6mb 43f
4:30 14 17 mph 1014.5mb 43f
4:24 15 20 mph 1014.4mb 43f
4:18 15 18 mph 1014.2mb 44f
4:12 15 20 mph 1014.1mb 44f
4:06 14 20 mph 1014mb 44f
4:00 20 25 mph 1013.9mb 44f
3:54 17 23 mph 1013.8mb 44f
3:48 18 23 mph 1013.7mb 45f
3:42 11 15 mph 1013.6mb 46f
3:36 16 20 mph 1013.5mb 46f
3:30 14 18 mph 1013.4mb 46f
3:24 16 23 mph 1013.4mb 46f
3:18 18 26 mph 1013.4mb 46f
3:12 21 29 mph 1013.3mb 45f
3:06 24 30 mph 1013.2mb 45f
3:00 20 26 mph 1013.1mb 46f
2:54 17 24 mph 1013.1mb 46f
2:48 17 24 mph 1013mb 46f
2:42 21 29 mph 1012.9mb 47f
2:36 25 32 mph 1012.8mb 46f
2:30 23 29 mph 1012.7mb 46f
2:24 21 29 mph 1012.6mb 46f
2:18 23 30 mph 1012.5mb 46f
2:12 24 33 mph 1012.5mb 46f
2:06 24 32 mph 1012.4mb 45f
2:00 23 31 mph 1012.3mb 46f
1:54 22 29 mph 1012.3mb 46f
1:48 21 26 mph 1012.4mb 46f
1:42 25 33 mph 1012.2mb 47f
1:36 20 25 mph 1012.2mb 47f
1:30 21 26 mph 1012.2mb 47f
1:24 22 29 mph 1012.2mb 46f
1:18 21 24 mph 1012.1mb 46f
1:12 22 28 mph 1012mb 46f
1:06 17 24 mph 1012mb 46f
1:00 17 21 mph 1012mb 47f
12:54 20 24 mph 1012mb 47f
12:48 21 26 mph 1012mb 47f
12:42 25 32 mph 1011.9mb 47f
12:36 17 25 mph 1011.9mb 47f
12:30 16 21 mph 1012mb 47f
12:24 15 20 mph 1012.1mb 46f
12:18 18 24 mph 1012.2mb 47f
12:12 20 24 mph 1012.1mb 47f
12:06 22 26 mph 1012.1mb 46f
12:00 23 30 mph 1012.1mb 46f
11:54 16 22 mph 1012.3mb 47f
11:48 20 25 mph 1012.3mb 46f
11:42 22 26 mph 1012.2mb 46f
11:36 20 26 mph 1012.3mb 46f
11:30 23 26 mph 1012.1mb 46f
11:24 22 30 mph 1012.2mb 46f
11:18 20 24 mph 1012.1mb 47f
11:12 18 23 mph 1012.2mb 46f
11:06 24 31 mph 1012mb 46f
11:00 24 31 mph 1012.1mb 46f
10:54 22 29 mph 1012.1mb 45f
10:48 22 29 mph 1012mb 46f
10:42 20 29 mph 1012.1mb 46f
10:36 21 28 mph 1012.2mb 46f
10:30 22 29 mph 1012.2mb 45f
10:24 21 29 mph 1012.3mb 45f
10:18 20 28 mph 1012.3mb 46f
10:12 14 18 mph 1012.3mb 46f
10:06 21 28 mph 1012.2mb 44f
10:00 18 26 mph 1012.1mb 45f
9:54 17 22 mph 1012.2mb 44f
9:48 22 32 mph 1012.1mb 44f
9:42 18 24 mph 1012.2mb 44f
9:36 20 23 mph 1012.2mb 44f
9:30 18 24 mph 1012.2mb 44f
9:24 20 29 mph 1012mb 43f
9:18 21 28 mph 1011.9mb 43f
9:12 25 31 mph 1011.7mb 43f
9:06 21 28 mph 1011.7mb 43f
9:00 18 25 mph 1011.8mb 43f
8:54 20 25 mph 1011.7mb 43f
8:48 18 24 mph 1011.5mb 43f
8:42 21 28 mph 1011.4mb 43f
8:36 22 28 mph 1011.3mb 42f
8:30 20 24 mph 1011.2mb 42f
8:24 18 24 mph 1011.2mb 42f
8:18 20 25 mph 1011.2mb 42f
8:12 17 21 mph 1011.2mb 42f
8:06 21 26 mph 1011.2mb 42f
8:00 21 26 mph 1011.1mb 42f
7:54 16 26 mph 1011.1mb 42f
7:48 16 22 mph 1011.1mb 42f
7:42 14 23 mph 1010.9mb 41f
7:36 16 23 mph 1010.9mb 41f
7:30 16 22 mph 1010.8mb 41f
7:24 13 18 mph 1010.8mb 41f
7:18 13 17 mph 1010.7mb 41f
7:12 15 23 mph 1010.6mb 41f
7:06 14 17 mph 1010.6mb 41f
7:00 14 20 mph 1010.6mb 41f
6:54 14 17 mph 1010.5mb 41f
6:48 16 20 mph 1010.4mb 41f
6:42 16 22 mph 1010.4mb 41f
6:36 16 21 mph 1010.3mb 41f
6:30 16 22 mph 1010.2mb 41f
6:24 15 18 mph 1010.3mb 41f
6:18 16 21 mph 1010.2mb 41f
6:12 15 20 mph 1010.2mb 41f
6:06 14 18 mph 1010.1mb 41f
6:00 15 21 mph 1010mb 41f
5:54 15 20 mph 1009.9mb 41f
5:48 16 21 mph 1009.8mb 41f
5:42 16 20 mph 1009.8mb 41f
5:36 15 18 mph 1009.7mb 41f
5:30 16 22 mph 1009.7mb 41f
5:24 18 22 mph 1009.6mb 41f
5:18 16 22 mph 1009.6mb 41f
5:12 16 20 mph 1009.5mb 41f
5:06 15 20 mph 1009.5mb 41f
5:00 16 20 mph 1009.4mb 41f
4:54 14 18 mph 1009.4mb 41f
4:48 15 25 mph 1009.4mb 41f
4:42 14 17 mph 1009.4mb 41f
4:36 16 20 mph 1009.3mb 41f
4:30 15 22 mph 1009.2mb 41f
4:24 17 21 mph 1009.1mb 41f
4:18 17 23 mph 1009.1mb 41f
4:12 15 20 mph 1009mb 42f
4:06 16 21 mph 1009mb 42f
4:00 16 21 mph 1009mb 42f
3:54 17 23 mph 1008.9mb 42f
3:48 18 23 mph 1008.8mb 42f
3:42 21 29 mph 1008.6mb 42f
3:36 22 25 mph 1008.5mb 42f
3:30 22 32 mph 1008.5mb 42f
3:24 20 24 mph 1008.7mb 42f
3:18 22 26 mph 1008.7mb 42f
3:12 21 26 mph 1008.7mb 42f
3:06 20 26 mph 1008.6mb 42f
3:00 22 29 mph 1008.6mb 42f
2:54 22 28 mph 1008.6mb 42f
2:48 18 23 mph 1008.7mb 42f
2:42 16 21 mph 1008.9mb 42f
2:36 18 22 mph 1008.8mb 43f
2:30 18 23 mph 1008.8mb 43f
2:24 21 29 mph 1008.7mb 43f
2:18 21 26 mph 1008.7mb 43f
2:12 18 22 mph 1008.9mb 43f
2:06 18 22 mph 1008.7mb 43f
2:00 21 24 mph 1008.7mb 43f
1:54 20 23 mph 1008.6mb 43f
1:48 21 25 mph 1008.6mb 44f
1:42 22 28 mph 1008.5mb 44f
1:36 22 26 mph 1008.5mb 44f
1:30 22 29 mph 1008.6mb 44f
1:24 20 25 mph 1008.6mb 44f
1:18 18 22 mph 1008.5mb 44f
1:12 16 21 mph 1008.5mb 44f
1:06 17 24 mph 1008.5mb 44f
1:00 18 24 mph 1008.3mb 43f
12:54 17 22 mph 1008.3mb 43f
12:48 16 21 mph 1008.2mb 43f
12:42 15 18 mph 1008.1mb 43f
12:36 11 14 mph 1008.2mb 43f
12:30 17 21 mph 1008.1mb 43f
12:24 16 20 mph 1008.1mb 43f
12:18 20 24 mph 1008mb 43f
12:12 17 24 mph 1008.1mb 44f
12:06 16 22 mph 1008.1mb 44f
12:00 16 21 mph 1008.1mb 44f
Sex 12/02 11:54 18 23 mph 1008.2mb 44f
11:48 18 23 mph 1008.2mb 44f
11:42 18 22 mph 1008.1mb 44f
11:36 20 23 mph 1008mb 44f
11:30 20 23 mph 1008mb 44f
11:24 23 26 mph 1008.1mb 44f
11:18 18 22 mph 1008.2mb 44f
11:12 18 24 mph 1008.4mb 44f
11:06 17 23 mph 1008.4mb 44f
11:00 18 21 mph 1008.4mb 44f
10:54 16 21 mph 1008.5mb 44f
10:48 16 21 mph 1008.5mb 44f
10:42 16 21 mph 1008.5mb 44f
10:36 16 20 mph 1008.6mb 45f
10:30 17 22 mph 1008.5mb 45f
10:24 17 21 mph 1008.5mb 45f
10:18 17 21 mph 1008.5mb 45f
10:12 16 18 mph 1008.4mb 45f
10:06 16 20 mph 1008.4mb 45f
10:00 16 22 mph 1008.3mb 45f
9:54 15 18 mph 1008.3mb 45f
9:48 14 16 mph 1008.4mb 45f
9:42 15 17 mph 1008.3mb 45f
9:36 15 18 mph 1008.4mb 46f
9:30 16 20 mph 1008.4mb 46f
9:24 17 23 mph 1008.4mb 46f
9:18 16 20 mph 1008.4mb 46f
9:12 20 23 mph 1008.3mb 46f
9:06 16 20 mph 1008.3mb 46f
9:00 15 17 mph 1008.4mb 46f
8:54 14 17 mph 1008.4mb 47f
8:48 14 15 mph 1008.4mb 47f
8:42 15 17 mph 1008.4mb 47f
8:36 15 16 mph 1008.4mb 47f
8:30 15 18 mph 1008.5mb 47f
8:24 16 22 mph 1008.4mb 47f
8:18 17 21 mph 1008.3mb 47f
8:12 20 22 mph 1008.2mb 47f
8:06 20 23 mph 1008.2mb 47f
8:00 21 23 mph 1008.2mb 47f
7:54 20 23 mph 1008.3mb 48f
7:48 20 22 mph 1008.4mb 48f
7:42 21 24 mph 1008.4mb 48f
7:36 21 24 mph 1008.4mb 48f
7:30 20 23 mph 1008.5mb 48f
7:24 21 25 mph 1008.6mb 48f
7:18 18 22 mph 1008.7mb 48f
7:12 21 24 mph 1008.6mb 48f
7:06 18 21 mph 1008.7mb 48f
7:00 16 20 mph 1008.7mb 48f
6:54 13 15 mph 1008.8mb 48f
6:48 13
mph
1008.8mb 48f
6:30 13 16 mph 1008.9mb 48f
6:24 14 16 mph 1008.9mb 48f
6:18 16 18 mph 1008.9mb 48f
6:12 14 16 mph 1008.8mb 48f
6:06 16 18 mph 1008.7mb 48f
6:00 16 17 mph 1008.7mb 48f
5:54 18 21 mph 1008.6mb 48f
5:48 20 22 mph 1008.6mb 48f
4:54 13 15 mph 1008.8mb 48f
4:48 10 13 mph 1008.8mb 48f